• Join FlightAware (Why Join?)
  • Login
  • US Flag 
12:51AM EDT


 

Airport Tracker/Info


-or-


 

Live Flight TrackerFlight Track Log ✈ VOZ187 ✈ 16-Apr-2013 ✈ NZAA / AKL - YBBN / BNE

Flight Track Log - Related Links

Times and Time Zones

All times are in EDT time to prevent confusion due to time zone crossing. See the VOZ187 flight status page for this flight to view local times or setup timezone preferences in your user account.

Time Position Orientation Groundspeed Altitude Reporting Facility
EDT Latitude Longitude Course Direction KTS MPH feet Rate Location/Type
04:22PM -35.6857 163.2770 312° West 34,000  Level Aus ATC (Calculated)
04:24PM -35.6546 163.0318 313° West 34,000 -60 Level Aus ATC (Calculated)
04:25PM -35.5880 162.9398 312° West  Level Estimated
04:25PM -35.6131 162.7103 315° West 34,000  Level Aus ATC (Calculated)
04:26PM -35.5212 162.8479 312° West  Level Estimated
04:27PM -35.5347 162.6055 313° West  Level Estimated
04:28PM -35.4634 162.5103 313° West  Level Estimated
04:29PM -35.3920 162.4154 313° West  Level Estimated
04:29PM -35.5585 162.2974 317° Northwest 32,000  Level Aus ATC (Calculated)
04:30PM -35.4857 162.2040 314° West  Level Estimated
04:31PM -35.4128 162.1108 314° West  Level Estimated
04:31PM -35.3498 162.0560 317° Northwest 32,000  Level Aus ATC (Calculated)
04:31PM -35.2801 161.9758 317° Northwest 32,000  Level Aus ATC (Calculated)
04:32PM -35.2104 161.8957 317° Northwest 32,000  Level Aus ATC (Calculated)
04:33PM -35.2011 161.8751 314° West  Level Estimated
04:34PM -35.1129 161.7717 314° West  Level Estimated
04:35PM -35.0387 161.6777 314° West  Level Estimated
04:36PM -34.9645 161.5839 314° West  Level Estimated
04:36PM -34.9309 161.5768 317° Northwest 32,000  Level Aus ATC (Calculated)
04:38PM -34.7875 161.3956 314° West  Level Estimated
04:39PM -34.7133 161.3022 314° West  Level Estimated
04:40PM -34.6389 161.2089 314° West  Level Estimated
04:41PM -34.5645 161.1158 314° West  Level Estimated
04:42PM -34.4900 161.0229 314° West  Level Estimated
04:43PM -34.4154 160.9301 314° West  Level Estimated
04:44PM -34.3408 160.8375 314° West  Level Estimated
04:45PM -34.2661 160.7450 314° West  Level Estimated
04:46PM -34.1913 160.6527 314° West  Level Estimated
04:47PM -34.1165 160.5606 314° West  Level Estimated
04:48PM -34.0415 160.4687 314° West  Level Estimated
04:49PM -33.9666 160.3769 315° West  Level Estimated
04:50PM -33.8915 160.2852 315° West  Level Estimated
04:51PM -33.8164 160.1938 315° West  Level Estimated
04:51PM -33.5213 160.0138 318° Northwest 32,000  Level Aus ATC (Calculated)
04:52PM -33.7412 160.1025 315° West  Level Estimated
04:53PM -33.4320 159.9035 314° West  Level Estimated
04:53PM -33.3792 159.8603 318° Northwest 32,000  Level Aus ATC (Calculated)
04:54PM -33.3576 159.8118 314° West  Level Estimated
04:55PM -33.2900 159.7502 314° West  Level Estimated
04:55PM -33.1658 159.6310 318° Northwest 32,000  Level Aus ATC (Calculated)
04:55PM -33.1658 159.6310 318° Northwest 32,000  Level Aus ATC (Calculated)
04:56PM -33.2155 159.6586 314° West  Level Estimated
04:57PM -33.0765 159.5211 314° West  Level Estimated
04:58PM -33.0021 159.4297 314° West  Level Estimated
04:59PM -32.9276 159.3385 314° West  Level Estimated
05:00PM -32.8530 159.2474 314° West  Level Estimated
05:01PM -32.7783 159.1565 314° West  Level Estimated
05:02PM -32.7036 159.0657 314° West  Level Estimated
05:03PM -32.6288 158.9751 314° West  Level Estimated
05:04PM -32.5540 158.8846 314° West  Level Estimated
05:05PM -32.4791 158.7943 315° West  Level Estimated
05:05PM -32.3795 158.7996 319° Northwest 32,000  Level Aus ATC (Calculated)
05:06PM -32.2360 158.6500 319° Northwest 32,000  Level Aus ATC (Calculated)
05:06PM -32.2360 158.6500 319° Northwest 32,000  Level Aus ATC (Calculated)
05:08PM -32.1211 158.5091 314° West  Level Estimated
05:09PM -32.0469 158.4184 314° West  Level Estimated
05:10PM -31.9726 158.3278 314° West  Level Estimated
05:11PM -31.8983 158.2374 314° West  Level Estimated
05:11PM -31.8042 158.2039 319° Northwest 32,000  Level Aus ATC (Calculated)
05:12PM -31.8239 158.1472 314° West  Level Estimated
05:13PM -31.6860 158.0587 314° West  Level Estimated
05:14PM -31.6121 157.9681 314° West  Level Estimated
05:15PM -31.5381 157.8777 314° West  Level Estimated
05:16PM -31.4640 157.7874 314° West  Level Estimated
05:16PM -31.3709 157.7620 319° Northwest 32,000  Level Aus ATC (Calculated)
05:17PM -31.3899 157.6973 314° West  Level Estimated
05:18PM -31.3157 157.6072 314° West  Level Estimated
05:19PM -31.1786 157.5246 313° West  Level Estimated
05:20PM -31.1050 157.4342 314° West  Level Estimated
05:21PM -31.0313 157.3439 314° West  Level Estimated
05:21PM -30.8583 157.2464 321° Northwest 32,000  Level Aus ATC (Calculated)
05:22PM -30.9576 157.2537 314° West  Level Estimated
05:23PM -30.7401 157.0985 313° West  Level Estimated
05:24PM -30.6668 157.0072 313° West  Level Estimated
05:24PM -30.5572 156.9471 139° Southeast 32,000  Level Aus ATC (Calculated)
05:25PM -30.5936 156.9160 313° West  Level Estimated
05:26PM -30.4750 156.8430 313° West  Level Estimated
05:27PM -30.4023 156.7513 313° West  Level Estimated
05:27PM -30.7817 157.1733 313° West 363 418 32,000  Level Aus ATC (RADAR)
05:29PM -30.6545 157.0398 318° Northwest 357 411 32,000  Level Aus ATC (RADAR)
05:30PM -30.5700 156.9600 321° Northwest 378 435 32,000  Level FlightAware
05:30PM -30.5245 156.9179 321° Northwest 369 425 32,000  Level Aus ATC (RADAR)
05:31PM -30.5200 156.9100 319° Northwest 378 435 32,000  Level FlightAware
05:32PM -30.4530 156.8440 320° Northwest 378 435 32,000  Level FlightAware
05:32PM -30.4059 156.7979 320° Northwest 367 422 32,000  Level Aus ATC (RADAR)
05:32PM -30.4090 156.7980 320° Northwest 378 435 32,000  Level FlightAware
05:33PM -30.3640 156.7530 319° Northwest 378 435 32,000  Level FlightAware
05:34PM -30.3190 156.7080 319° Northwest 378 435 32,000  Level FlightAware
05:34PM -30.2630 156.6520 319° Northwest 378 435 32,000  Level FlightAware
05:35PM -30.2180 156.6060 319° Northwest 378 435 32,000  Level FlightAware
05:36PM -30.1730 156.5610 319° Northwest 378 435 32,000  Level FlightAware
05:36PM -30.1008 156.4993 319° Northwest 365 420 32,000  Level Aus ATC (RADAR)
05:36PM -30.1280 156.5160 319° Northwest 378 435 32,000  Level FlightAware
05:37PM -30.0830 156.4710 319° Northwest 378 435 32,000  Level FlightAware
05:38PM -30.0270 156.4150 319° Northwest 378 435 32,000  Level FlightAware
05:38PM -29.9004 156.2998 319° Northwest 357 411 32,000  Level Aus ATC (RADAR)
05:39PM -29.9820 156.3700 319° Northwest 378 435 32,000  Level FlightAware
05:39PM -29.9370 156.3250 319° Northwest 378 435 32,000  Level FlightAware
05:40PM -29.7908 156.1936 319° Northwest 354 407 32,000  Level Aus ATC (RADAR)
05:40PM -29.8930 156.2800 319° Northwest 378 435 32,000  Level FlightAware
05:41PM -29.8480 156.2350 319° Northwest 378 435 32,000  Level FlightAware
05:42PM -29.6487 156.0587 319° Northwest 353 406 32,000  Level Aus ATC (RADAR)
05:43PM -29.5089 155.9244 320° Northwest 350 403 32,000  Level Aus ATC (RADAR)
05:44PM -29.4660 155.8840 320° Northwest 359 413 32,000  Level FlightAware
05:45PM -29.4140 155.8340 320° Northwest 359 413 32,000  Level FlightAware
05:45PM -29.3710 155.7920 320° Northwest 359 413 32,000  Level FlightAware
05:46PM -29.3280 155.7500 320° Northwest 359 413 32,000  Level FlightAware
05:47PM -29.2740 155.6980 320° Northwest 359 413 32,000  Level FlightAware
05:48PM -29.2300 155.6570 321° Northwest 359 413 32,000  Level FlightAware
05:48PM -29.1646 155.5951 321° Northwest 352 405 32,000  Level Aus ATC (RADAR)
05:48PM -29.1350 155.5670 321° Northwest 357 411 32,000  Level FlightAware
05:49PM -29.0840 155.5180 320° Northwest 355 409 32,000  Level FlightAware
05:49PM -29.0510 155.4869 320° Northwest 347 399 32,000  Level Aus ATC (RADAR)
05:50PM -29.0270 155.4630 320° Northwest 356 410 32,000  Level FlightAware
05:51PM -28.9432 155.3848 320° Northwest 349 402 32,000  Level Aus ATC (RADAR)
05:51PM -28.9500 155.3910 320° Northwest 356 410 32,000  Level FlightAware
05:52PM -28.8900 155.3350 321° Northwest 331 381 32,000  Level FlightAware
05:52PM -28.8530 155.2990 320° Northwest 321 369 32,000  Level FlightAware
05:53PM -28.8060 155.2540 320° Northwest 320 368 32,000  Level FlightAware
05:54PM -28.7680 155.2180 320° Northwest 320 368 32,000  Level FlightAware
05:55PM -28.6810 155.1360 320° Northwest 32,000  Level FlightAware
05:55PM -28.6410 155.0990 321° Northwest 331 381 32,000  Level FlightAware
05:56PM -28.5780 155.0400 321° Northwest 322 371 32,000  Level FlightAware
05:57PM -28.5240 154.9900 321° Northwest 322 371 32,000  Level FlightAware
05:57PM -28.4840 154.9520 320° Northwest 322 371 32,000  Level FlightAware
05:58PM -28.4350 154.9060 320° Northwest 332 382 32,000  Level FlightAware
05:58PM -28.4005 154.8748 320° Northwest 328 377 32,000  Level Aus ATC (RADAR)
05:59PM -28.3790 154.8530 320° Northwest 334 384 32,000  Level FlightAware
06:00PM -28.3280 154.8070 322° Northwest 336 387 32,000  Level FlightAware
06:00PM -28.2900 154.7710 320° Northwest 335 386 32,000  Level FlightAware
06:01PM -28.2280 154.7130 320° Northwest 336 387 32,000  Level FlightAware
06:01PM -28.2513 154.7353 320° Northwest 329 379 32,000  Level Aus ATC (RADAR)
06:02PM -28.1670 154.6570 320° Northwest 322 371 32,000 -120 Level FlightAware
06:03PM -28.1190 154.6120 320° Northwest 318 366 31,900 -1,020 Descending FlightAware
06:03PM -28.0650 154.5620 321° Northwest 309 356 30,500 -1,800 Descending FlightAware
06:04PM -28.0230 154.5230 321° Northwest 294 338 29,400 -120 Descending FlightAware
06:04PM -28.0654 154.5627 321° Northwest 310 357 30,400 -1,800 Climbing Aus ATC (RADAR)
06:05PM -27.9810 154.4840 321° Northwest 297 342 28,200 -4,380 Descending FlightAware
06:05PM -27.9310 154.4380 321° Northwest 298 343 26,500 -1,980 Descending FlightAware
06:06PM -27.8900 154.4000 321° Northwest 298 343 25,400 -1,200 Descending FlightAware
06:06PM -27.9036 154.4127 321° Northwest 304 350 25,700 -1,800 Climbing Aus ATC (RADAR)
06:07PM -27.8430 154.3560 320° Northwest 295 339 24,200 -1,980 Descending FlightAware
06:08PM -27.7920 154.3100 320° Northwest 296 341 22,800 -1,860 Descending FlightAware
06:08PM -27.7843 154.3031 320° Northwest 299 344 22,600 -1,680 Descending Aus ATC (RADAR)
06:08PM -27.7360 154.2580 321° Northwest 293 337 21,400 -1,800 Descending FlightAware
06:09PM -27.6860 154.2120 321° Northwest 298 343 19,900 -1,980 Descending FlightAware
06:10PM -27.6440 154.1730 321° Northwest 313 360 18,600 -1,920 Descending FlightAware
06:10PM -27.5960 154.1300 322° Northwest 311 358 17,400 -1,740 Descending FlightAware
06:11PM -27.5811 154.1163 322° Northwest 310 357 17,000 -1,500 Descending Aus ATC (RADAR)
06:11PM -27.5470 154.0850 322° Northwest 300 345 16,300 -1,560 Descending FlightAware
06:12PM -27.5200 154.0510 312° West 297 342 15,500 -1,500 Descending FlightAware
06:12PM -27.5080 153.9890 282° West 297 342 14,600 -1,200 Descending FlightAware
06:13PM -27.4970 153.9210 280° West 291 335 13,800 -1,020 Descending FlightAware
06:14PM -27.4870 153.8610 281° West 291 335 13,200 -1,020 Descending FlightAware
06:14PM -27.4770 153.8010 281° West 291 335 12,500 -1,080 Descending FlightAware
06:15PM -27.4670 153.7360 280° West 283 326 11,700 -1,200 Descending FlightAware
06:16PM -27.4570 153.6790 281° West 280 322 10,800 -1,440 Descending FlightAware
06:17PM -27.4460 153.6140 281° West 276 318 9,700 -1,500 Descending FlightAware
06:17PM -27.4417 153.5894 281° West 273 314 9,300 -1,440 Descending Aus ATC (RADAR)
06:17PM -27.4400 153.5780 281° West 276 318 9,100 -1,440 Descending FlightAware
06:18PM -27.4330 153.5360 281° West 274 315 8,400 -1,200 Descending FlightAware
06:18PM -27.4400 153.4820 262° West 273 314 7,700 -960 Descending FlightAware
06:19PM -27.4570 153.4430 244° Southwest 275 316 7,300 -780 Descending FlightAware
06:19PM -27.4700 153.4120 245° Southwest 276 318 7,000 -780 Descending FlightAware
06:19PM -27.4800 153.3910 242° Southwest 275 316 6,800 -840 Descending FlightAware
06:20PM -27.4960 153.3530 245° Southwest 272 313 6,400 -840 Descending FlightAware
06:20PM -27.5130 153.3150 243° Southwest 268 308 6,000 -780 Descending FlightAware
06:21PM -27.5260 153.2850 244° Southwest 268 308 5,700 -780 Descending FlightAware
06:21PM -27.5430 153.2480 243° Southwest 262 302 5,300 -780 Descending FlightAware
06:22PM -27.5560 153.2170 245° Southwest 254 292 5,000 -780 Descending FlightAware
06:22PM -27.5720 153.1810 243° Southwest 248 285 4,600 -720 Descending FlightAware
06:23PM -27.5820 153.1580 244° Southwest 245 282 4,400 -720 Descending FlightAware
06:23PM -27.5947 153.1286 244° Southwest 240 276 4,100 -720 Descending Aus ATC (RADAR)
06:23PM -27.5960 153.1240 244° Southwest 234 269 4,000 -600 Descending FlightAware
06:24PM -27.5920 153.0860 277° West 210 242 3,700 -600 Descending FlightAware
06:24PM -27.5860 153.0630 286° West 198 228 3,500 -600 Descending FlightAware
06:25PM -27.5740 153.0360 297° West 179 206 3,200 -540 Descending FlightAware
06:25PM -27.5660 153.0310 331° Northwest 178 205 3,100 -600 Descending FlightAware
06:25PM -27.5440 153.0370 14° North 182 209 2,800 -660 Descending FlightAware
06:26PM -27.5200 153.0510 27° Northeast 186 214 2,500 -780 Descending FlightAware
06:26PM -27.5010 153.0620 27° Northeast 187 215 2,100 -960 Descending FlightAware
06:26PM -27.4842 153.0716 27° Northeast 185 213 1,800 -1,020 Descending Aus ATC (RADAR)
06:27PM -27.4780 153.0750 27° Northeast 175 201 1,600 -900 Descending FlightAware
06:27PM -27.4580 153.0870 28° Northeast 155 178 1,200 -780 Descending FlightAware
06:28PM -27.4420 153.0960 27° Northeast 152 175 900 -780 Descending FlightAware
06:28PM -27.4317 153.1018 27° Northeast 153 176 700 -840 Descending Aus ATC (RADAR)
06:28PM -27.4250 153.1060 27° Northeast 148 170 500 -780 Descending FlightAware
06:28PM -27.4090 153.1150 27° Northeast 151 174 200 -720 Descending FlightAware
06:29PM -27.3910 153.1250 26° Northeast 110 127 -420 Descending FlightAware
06:29PM -27.3870 153.1270 24° Northeast 42 48  Level FlightAware
06:30PM -27.3830 153.1270 360° North 33 38  Level FlightAware
06:30PM -27.3850 153.1270 180° South 8 9  Level FlightAware